createdAt,value
2016-05-09T00:00:55.418Z,1003.88
2016-05-09T00:01:55.468Z,1003.85
2016-05-09T00:02:55.504Z,1003.82
2016-05-09T00:03:55.552Z,1003.79
2016-05-09T00:04:55.602Z,1003.75
2016-05-09T00:05:55.636Z,1003.74
2016-05-09T00:06:55.685Z,1003.74
2016-05-09T00:07:55.720Z,1003.77
2016-05-09T00:08:55.754Z,1003.81
2016-05-09T00:09:55.803Z,1003.84
2016-05-09T00:10:55.837Z,1003.8
2016-05-09T00:11:55.886Z,1003.79
2016-05-09T00:12:55.920Z,1003.81
2016-05-09T00:13:55.970Z,1003.79
2016-05-09T00:14:56.036Z,1003.76
2016-05-09T00:15:56.053Z,1003.8
2016-05-09T00:16:56.087Z,1003.77
2016-05-09T00:17:56.136Z,1003.78
2016-05-09T00:18:56.171Z,1003.77
2016-05-09T00:19:56.205Z,1003.77
2016-05-09T00:20:56.255Z,1003.78
2016-05-09T00:21:56.320Z,1003.77
2016-05-09T00:22:56.353Z,1003.78
2016-05-09T00:23:56.372Z,1003.75
2016-05-09T00:24:56.421Z,1003.8
2016-05-09T00:25:56.455Z,1003.8
2016-05-09T00:26:56.504Z,1003.82
2016-05-09T00:27:56.539Z,1003.84
2016-05-09T00:28:56.588Z,1003.85
2016-05-09T00:29:56.622Z,1003.92
2016-05-09T00:30:56.672Z,1003.9
2016-05-09T00:31:56.706Z,1003.87
2016-05-09T00:32:56.771Z,1003.86
2016-05-09T00:33:56.790Z,1003.85
2016-05-09T00:34:56.839Z,1003.84
2016-05-09T00:35:56.888Z,1003.8
2016-05-09T00:36:56.938Z,1003.84
2016-05-09T00:37:56.956Z,1003.85
2016-05-09T00:38:56.990Z,1003.83
2016-05-09T00:39:57.040Z,1003.85
2016-05-09T00:40:57.074Z,1003.91
2016-05-09T00:41:57.139Z,1003.9
2016-05-09T00:42:57.157Z,1003.89
2016-05-09T00:43:57.207Z,1003.85
2016-05-09T00:44:57.242Z,1003.79
2016-05-09T00:45:57.289Z,1003.82
2016-05-09T00:46:57.325Z,1003.81
2016-05-09T00:47:57.358Z,1003.81
2016-05-09T00:48:57.408Z,1003.83
2016-05-09T00:49:57.441Z,1003.83
2016-05-09T00:50:57.492Z,1003.83
2016-05-09T00:51:57.525Z,1003.89
2016-05-09T00:52:57.575Z,1003.9
2016-05-09T00:53:57.608Z,1003.89
2016-05-09T00:54:57.658Z,1003.91
2016-05-09T00:55:57.692Z,1003.92
2016-05-09T00:56:57.741Z,1003.92
2016-05-09T00:57:57.776Z,1003.89
2016-05-09T00:58:57.888Z,1003.86
2016-05-09T00:59:57.860Z,1003.86
2016-05-09T01:00:57.909Z,1003.87
2016-05-09T01:01:57.943Z,1003.84
2016-05-09T01:02:57.993Z,1003.85
2016-05-09T01:03:58.026Z,1003.84
2016-05-09T01:04:58.076Z,1003.83
2016-05-09T01:05:58.126Z,1003.8
2016-05-09T01:06:58.143Z,1003.83
2016-05-09T01:07:58.193Z,1003.85
2016-05-09T01:08:58.226Z,1003.83
2016-05-09T01:09:58.277Z,1003.83
2016-05-09T01:10:58.312Z,1003.83
2016-05-09T01:11:58.345Z,1003.84
2016-05-09T01:12:58.394Z,1003.85
2016-05-09T01:13:58.428Z,1003.84
2016-05-09T01:14:58.477Z,1003.84
2016-05-09T01:15:58.512Z,1003.83
2016-05-09T01:16:58.562Z,1003.82
2016-05-09T01:17:58.595Z,1003.85
2016-05-09T01:18:58.629Z,1003.83
2016-05-09T01:19:58.678Z,1003.82
2016-05-09T01:20:58.713Z,1003.8
2016-05-09T01:21:58.761Z,1003.81
2016-05-09T01:22:58.797Z,1003.87
2016-05-09T01:23:58.830Z,1003.82
2016-05-09T01:24:58.880Z,1003.86
2016-05-09T01:25:58.913Z,1003.86
2016-05-09T01:26:58.963Z,1003.84
2016-05-09T01:27:59.028Z,1003.89
2016-05-09T01:28:59.641Z,1003.86
2016-05-09T01:29:59.080Z,1003.85
2016-05-09T01:30:59.130Z,1003.84
2016-05-09T01:31:59.179Z,1003.9
2016-05-09T01:32:59.213Z,1003.93
2016-05-09T01:33:59.248Z,1003.85
2016-05-09T01:34:59.282Z,1003.88
2016-05-09T01:35:59.331Z,1003.9
2016-05-09T01:36:59.365Z,1003.92
2016-05-09T01:37:59.414Z,1003.89
2016-05-09T01:38:59.480Z,1003.9
2016-05-09T01:39:59.499Z,1003.9
2016-05-09T01:40:59.532Z,1003.9
2016-05-09T01:41:59.566Z,1003.89
2016-05-09T01:42:59.615Z,1003.94
2016-05-09T01:43:59.649Z,1003.94
2016-05-09T01:44:59.699Z,1003.96
2016-05-09T01:45:59.733Z,1003.97
2016-05-09T01:46:59.783Z,1004.03
2016-05-09T01:47:59.817Z,1004.07
2016-05-09T01:48:59.850Z,1004.08
2016-05-09T01:49:59.900Z,1004.06
2016-05-09T01:50:59.949Z,1004.1
2016-05-09T01:51:59.984Z,1004.1
2016-05-09T01:53:00.017Z,1004.1
2016-05-09T01:54:00.067Z,1004.09
2016-05-09T01:55:00.100Z,1004.1
2016-05-09T01:56:00.150Z,1004.11
2016-05-09T01:57:00.185Z,1004.06
2016-05-09T01:58:00.234Z,1004.09
2016-05-09T01:59:00.268Z,1004.1
2016-05-09T02:00:00.302Z,1004.08
2016-05-09T02:01:00.351Z,1004.1
2016-05-09T02:02:00.385Z,1004.06
2016-05-09T02:03:00.435Z,1004.07
2016-05-09T02:04:00.469Z,1004.07
2016-05-09T02:05:00.503Z,1004.07
2016-05-09T02:06:00.552Z,1004.03
2016-05-09T02:07:00.601Z,1004.03
2016-05-09T02:08:00.651Z,1004.02
2016-05-09T02:09:00.671Z,1003.97
2016-05-09T02:10:00.720Z,1004
2016-05-09T02:11:00.754Z,1003.99
2016-05-09T02:12:00.787Z,1003.98
2016-05-09T02:13:00.837Z,1003.98
2016-05-09T02:14:00.870Z,1003.99
2016-05-09T02:15:00.905Z,1004.02
2016-05-09T02:16:00.954Z,1004.02
2016-05-09T02:17:00.989Z,1004
2016-05-09T02:18:01.037Z,1004.05
2016-05-09T02:19:01.087Z,1004.07
2016-05-09T02:20:01.105Z,1004.01
2016-05-09T02:21:01.155Z,1004.02
2016-05-09T02:22:01.205Z,1003.99
2016-05-09T02:23:01.239Z,1003.97
2016-05-09T02:24:01.279Z,1003.94
2016-05-09T02:25:01.313Z,1003.91
2016-05-09T02:26:01.362Z,1003.91
2016-05-09T02:27:01.397Z,1003.91
2016-05-09T02:28:01.432Z,1003.93
2016-05-09T02:29:01.480Z,1003.96
2016-05-09T02:30:01.514Z,1003.93
2016-05-09T02:31:01.548Z,1003.92
2016-05-09T02:32:01.598Z,1003.91
2016-05-09T02:33:01.648Z,1003.93
2016-05-09T02:34:01.682Z,1003.95
2016-05-09T02:35:01.715Z,1003.95
2016-05-09T02:36:01.765Z,1003.98
2016-05-09T02:37:01.798Z,1003.94
2016-05-09T02:38:01.833Z,1003.99
2016-05-09T02:39:01.882Z,1004.01
2016-05-09T02:40:01.917Z,1004.01
2016-05-09T02:41:01.966Z,1004.04
2016-05-09T02:42:02.000Z,1004.01
2016-05-09T02:43:02.034Z,1004.04
2016-05-09T02:44:02.083Z,1004.02
2016-05-09T02:45:02.117Z,1004.02
2016-05-09T02:46:02.167Z,1003.99
2016-05-09T02:47:02.200Z,1004.06
2016-05-09T02:48:02.250Z,1004.06
2016-05-09T02:49:02.284Z,1004.03
2016-05-09T02:50:02.319Z,1004.08
2016-05-09T02:51:02.368Z,1004.05
2016-05-09T02:52:02.402Z,1004.03
2016-05-09T02:53:02.451Z,1004.04
2016-05-09T02:54:02.485Z,1004.05
2016-05-09T02:55:02.534Z,1004.06
2016-05-09T02:56:02.569Z,1004.03
2016-05-09T02:57:02.602Z,1004.02
2016-05-09T02:58:02.637Z,1004.02
2016-05-09T02:59:02.685Z,1004.02
2016-05-09T03:00:02.721Z,1004.02
2016-05-09T03:01:02.770Z,1004.06
2016-05-09T03:02:02.804Z,1004.06
2016-05-09T03:03:02.853Z,1004.03
2016-05-09T03:04:02.887Z,1004.11
2016-05-09T03:05:02.920Z,1004.06
2016-05-09T03:06:02.970Z,1004.05
2016-05-09T03:07:03.004Z,1004.05
2016-05-09T03:08:03.054Z,1004.04
2016-05-09T03:09:03.087Z,1004.05
2016-05-09T03:10:03.138Z,1004.01
2016-05-09T03:11:03.172Z,1004
2016-05-09T03:12:03.205Z,1004.01
2016-05-09T03:13:03.239Z,1004
2016-05-09T03:14:03.289Z,1004.03
2016-05-09T03:15:03.339Z,1004.03
2016-05-09T03:16:03.372Z,1004
2016-05-09T03:17:03.406Z,1004
2016-05-09T03:18:03.456Z,1003.98
2016-05-09T03:19:03.489Z,1003.97
2016-05-09T03:20:03.539Z,1003.99
2016-05-09T03:21:03.574Z,1003.98
2016-05-09T03:22:03.623Z,1003.95
2016-05-09T03:23:03.657Z,1003.91
2016-05-09T03:24:03.691Z,1003.95
2016-05-09T03:25:03.724Z,1003.89
2016-05-09T03:26:03.774Z,1003.93
2016-05-09T03:27:03.808Z,1003.95
2016-05-09T03:28:03.858Z,1003.92
2016-05-09T03:29:03.892Z,1003.93
2016-05-09T03:30:03.941Z,1003.96
2016-05-09T03:31:03.976Z,1004.01
2016-05-09T03:32:04.009Z,1004.01
2016-05-09T03:33:04.059Z,1004.03
2016-05-09T03:34:04.092Z,1003.99
2016-05-09T03:35:04.127Z,1004.01
2016-05-09T03:36:04.176Z,1004.01
2016-05-09T03:37:04.210Z,1004.04
2016-05-09T03:38:04.290Z,1003.98
2016-05-09T03:39:04.294Z,1004.01
2016-05-09T03:40:04.328Z,1003.99
2016-05-09T03:41:04.378Z,1003.98
2016-05-09T03:42:04.411Z,1003.98
2016-05-09T03:43:04.445Z,1004.01
2016-05-09T03:44:04.494Z,1003.96
2016-05-09T03:45:04.560Z,1004.02
2016-05-09T03:46:04.578Z,1004.05
2016-05-09T03:47:04.612Z,1004.03
2016-05-09T03:48:04.646Z,1004.02
2016-05-09T03:49:04.695Z,1004.03
2016-05-09T03:50:04.730Z,1004.02
2016-05-09T03:51:04.794Z,1004.05
2016-05-09T03:52:04.813Z,1004.03
2016-05-09T03:53:04.847Z,1004.04
2016-05-09T03:54:04.896Z,1004.08
2016-05-09T03:55:04.930Z,1004.05
2016-05-09T03:56:04.996Z,1004.11
2016-05-09T03:57:05.014Z,1004.11
2016-05-09T03:58:05.048Z,1004.1
2016-05-09T03:59:05.097Z,1004.12
2016-05-09T04:00:05.131Z,1004.13
2016-05-09T04:01:05.182Z,1004.13
2016-05-09T04:02:05.215Z,1004.15
2016-05-09T04:03:05.249Z,1004.12
2016-05-09T04:04:05.298Z,1004.19
2016-05-09T04:05:05.332Z,1004.14
2016-05-09T04:06:05.365Z,1004.13
2016-05-09T04:07:05.416Z,1004.15
2016-05-09T04:08:05.450Z,1004.09
2016-05-09T04:09:05.499Z,1004.08
2016-05-09T04:10:05.533Z,1004.12
2016-05-09T04:11:05.567Z,1004.09
2016-05-09T04:12:05.616Z,1004.11
2016-05-09T04:13:05.651Z,1004.15
2016-05-09T04:14:05.685Z,1004.17
2016-05-09T04:15:05.734Z,1004.15
2016-05-09T04:16:05.767Z,1004.15
2016-05-09T04:17:05.817Z,1004.11
2016-05-09T04:18:05.852Z,1004.1
2016-05-09T04:19:05.901Z,1004.15
2016-05-09T04:20:05.936Z,1004.18
2016-05-09T04:21:05.985Z,1004.17
2016-05-09T04:22:06.018Z,1004.18
2016-05-09T04:23:06.052Z,1004.2
2016-05-09T04:24:06.086Z,1004.2
2016-05-09T04:25:06.136Z,1004.18
2016-05-09T04:26:06.170Z,1004.2
2016-05-09T04:27:06.219Z,1004.22
2016-05-09T04:28:06.254Z,1004.2
2016-05-09T04:29:06.694Z,1004.22
2016-05-09T04:30:06.337Z,1004.23
2016-05-09T04:31:06.371Z,1004.22
2016-05-09T04:32:06.421Z,1004.26
2016-05-09T04:33:06.454Z,1004.22
2016-05-09T04:34:06.488Z,1004.2
2016-05-09T04:35:06.569Z,1004.22
2016-05-09T04:36:06.587Z,1004.21
2016-05-09T04:37:06.621Z,1004.25
2016-05-09T04:38:06.656Z,1004.32
2016-05-09T04:39:06.690Z,1004.3
2016-05-09T04:40:06.739Z,1004.26
2016-05-09T04:41:06.773Z,1004.27
2016-05-09T04:42:06.822Z,1004.32
2016-05-09T04:43:06.856Z,1004.3
2016-05-09T04:44:06.906Z,1004.32
2016-05-09T04:45:06.940Z,1004.3
2016-05-09T04:46:06.974Z,1004.31
2016-05-09T04:47:07.023Z,1004.32
2016-05-09T04:48:07.057Z,1004.38
2016-05-09T04:49:07.091Z,1004.37
2016-05-09T04:50:07.142Z,1004.36
2016-05-09T04:51:07.174Z,1004.36
2016-05-09T04:52:07.225Z,1004.38
2016-05-09T04:53:07.274Z,1004.41
2016-05-09T04:54:07.308Z,1004.43
2016-05-09T04:55:07.341Z,1004.38
2016-05-09T04:56:07.376Z,1004.33
2016-05-09T04:57:07.425Z,1004.36
2016-05-09T04:58:07.460Z,1004.35
2016-05-09T04:59:07.508Z,1004.34
2016-05-09T05:00:07.558Z,1004.32
2016-05-09T05:01:07.576Z,1004.32
2016-05-09T05:02:07.627Z,1004.35
2016-05-09T05:03:07.676Z,1004.32
2016-05-09T05:04:07.710Z,1004.4
2016-05-09T05:05:07.743Z,1004.42
2016-05-09T05:06:07.777Z,1004.4
2016-05-09T05:07:07.827Z,1004.4
2016-05-09T05:08:07.862Z,1004.38
2016-05-09T05:09:07.910Z,1004.4
2016-05-09T05:10:07.945Z,1004.36
2016-05-09T05:11:07.979Z,1004.4
2016-05-09T05:12:08.028Z,1004.35
2016-05-09T05:13:08.078Z,1004.38
2016-05-09T05:14:08.112Z,1004.37
2016-05-09T05:15:08.145Z,1004.31
2016-05-09T05:16:08.195Z,1004.33
2016-05-09T05:17:08.228Z,1004.31
2016-05-09T05:18:08.279Z,1004.28
2016-05-09T05:19:08.312Z,1004.33
2016-05-09T05:20:08.362Z,1004.32
2016-05-09T05:21:08.396Z,1004.33
2016-05-09T05:22:08.430Z,1004.35
2016-05-09T05:23:08.479Z,1004.32
2016-05-09T05:24:08.514Z,1004.35
2016-05-09T05:25:08.611Z,1004.34
2016-05-09T05:26:08.628Z,1004.38
2016-05-09T05:27:08.646Z,1004.41
2016-05-09T05:28:08.680Z,1004.38
2016-05-09T05:29:08.746Z,1004.38
2016-05-09T05:30:08.764Z,1004.4
2016-05-09T05:31:08.814Z,1004.44
2016-05-09T05:32:08.847Z,1004.41
2016-05-09T05:33:08.881Z,1004.45
2016-05-09T05:34:08.931Z,1004.45
2016-05-09T05:35:08.965Z,1004.45
2016-05-09T05:36:09.015Z,1004.43
2016-05-09T05:37:09.065Z,1004.46
2016-05-09T05:38:09.082Z,1004.41
2016-05-09T05:39:09.132Z,1004.45
2016-05-09T05:40:09.165Z,1004.4
2016-05-09T05:41:09.215Z,1004.4
2016-05-09T05:42:09.249Z,1004.42
2016-05-09T05:43:09.284Z,1004.48
2016-05-09T05:44:09.333Z,1004.51
2016-05-09T05:45:09.367Z,1004.51
2016-05-09T05:46:09.417Z,1004.5
2016-05-09T05:47:09.560Z,1004.51
2016-05-09T05:48:09.500Z,1004.5
2016-05-09T05:49:09.628Z,1004.47
2016-05-09T05:50:09.567Z,1004.47
2016-05-09T05:51:09.617Z,1004.53
2016-05-09T05:52:09.650Z,1004.52
2016-05-09T05:53:09.700Z,1004.5
2016-05-09T05:54:09.798Z,1004.5
2016-05-09T05:55:10.675Z,1004.53
2016-05-09T05:56:09.819Z,1004.47
2016-05-09T05:57:10.164Z,1004.51
2016-05-09T05:58:09.902Z,1004.48
2016-05-09T05:59:09.966Z,1004.5
2016-05-09T06:00:09.985Z,1004.53
2016-05-09T06:01:10.093Z,1004.57
2016-05-09T06:02:10.156Z,1004.58
2016-05-09T06:03:10.233Z,1004.59
2016-05-09T06:04:10.358Z,1004.61
2016-05-09T06:05:10.671Z,1004.62
2016-05-09T06:06:10.455Z,1004.66
2016-05-09T06:07:10.521Z,1004.63
2016-05-09T06:08:10.569Z,1004.66
2016-05-09T06:09:10.635Z,1004.68
2016-05-09T06:10:10.685Z,1004.63
2016-05-09T06:11:10.740Z,1004.65
2016-05-09T06:12:10.795Z,1004.63
2016-05-09T06:13:10.851Z,1004.62
2016-05-09T06:14:10.880Z,1004.61
2016-05-09T06:15:10.966Z,1004.68
2016-05-09T06:16:10.971Z,1004.61
2016-05-09T06:17:11.006Z,1004.61
2016-05-09T06:18:11.058Z,1004.59
2016-05-09T06:19:11.438Z,1004.66
2016-05-09T06:20:11.145Z,1004.63
2016-05-09T06:21:11.180Z,1004.61
2016-05-09T06:22:11.231Z,1004.66
2016-05-09T06:23:11.296Z,1004.61
2016-05-09T06:24:11.299Z,1004.63
2016-05-09T06:25:12.506Z,1004.63
2016-05-09T06:26:11.384Z,1004.59
2016-05-09T06:27:11.434Z,1004.64
2016-05-09T06:28:11.468Z,1004.65
2016-05-09T06:29:12.955Z,1004.65
2016-05-09T06:30:11.583Z,1004.62
2016-05-09T06:31:11.601Z,1004.62
2016-05-09T06:32:11.635Z,1004.66
2016-05-09T06:33:11.715Z,1004.63
2016-05-09T06:34:11.718Z,1004.65
2016-05-09T06:35:11.799Z,1004.65
2016-05-09T06:36:11.802Z,1004.63
2016-05-09T06:37:11.961Z,1004.62
2016-05-09T06:38:11.885Z,1004.63
2016-05-09T06:39:11.935Z,1004.65
2016-05-09T06:40:11.969Z,1004.59
2016-05-09T06:41:12.190Z,1004.57
2016-05-09T06:42:12.052Z,1004.59
2016-05-09T06:43:12.118Z,1004.59
2016-05-09T06:44:12.135Z,1004.57
2016-05-09T06:45:12.186Z,1004.58
2016-05-09T06:46:13.876Z,1004.57
2016-05-09T06:47:12.254Z,1004.57
2016-05-09T06:48:12.318Z,1004.56
2016-05-09T06:49:12.446Z,1004.58
2016-05-09T06:50:12.387Z,1004.63
2016-05-09T06:51:12.420Z,1004.61
2016-05-09T06:52:12.470Z,1004.66
2016-05-09T06:53:12.628Z,1004.6
2016-05-09T06:54:12.631Z,1004.63
2016-05-09T06:55:12.587Z,1004.63
2016-05-09T06:56:12.637Z,1004.63
2016-05-09T06:57:12.687Z,1004.64
2016-05-09T06:58:12.720Z,1004.64
2016-05-09T06:59:13.223Z,1004.64
2016-05-09T07:00:12.804Z,1004.61
2016-05-09T07:01:12.838Z,1004.63
2016-05-09T07:02:12.887Z,1004.64
2016-05-09T07:03:13.030Z,1004.64
2016-05-09T07:04:12.971Z,1004.67
2016-05-09T07:05:13.020Z,1004.67
2016-05-09T07:06:13.116Z,1004.71
2016-05-09T07:07:13.105Z,1004.69
2016-05-09T07:08:13.200Z,1004.73
2016-05-09T07:09:13.188Z,1004.71
2016-05-09T07:10:13.283Z,1004.71
2016-05-09T07:11:13.583Z,1004.7
2016-05-09T07:12:13.774Z,1004.71
2016-05-09T07:13:13.339Z,1004.68
2016-05-09T07:14:13.577Z,1004.67
2016-05-09T07:15:13.422Z,1004.69
2016-05-09T07:16:13.535Z,1004.67
2016-05-09T07:17:13.506Z,1004.61
2016-05-09T07:18:13.555Z,1004.66
2016-05-09T07:19:13.605Z,1004.55
2016-05-09T07:20:13.670Z,1004.55
2016-05-09T07:21:13.688Z,1004.56
2016-05-09T07:22:13.723Z,1004.56
2016-05-09T07:23:13.772Z,1004.56
2016-05-09T07:24:13.806Z,1004.59
2016-05-09T07:25:13.856Z,1004.53
2016-05-09T07:26:13.890Z,1004.51
2016-05-09T07:27:13.939Z,1004.55
2016-05-09T07:28:13.973Z,1004.49
2016-05-09T07:29:14.445Z,1004.56
2016-05-09T07:30:14.057Z,1004.57
2016-05-09T07:31:14.106Z,1004.5
2016-05-09T07:32:14.155Z,1004.45
2016-05-09T07:33:14.190Z,1004.52
2016-05-09T07:34:14.223Z,1004.52
2016-05-09T07:35:14.305Z,1004.47
2016-05-09T07:36:14.323Z,1004.46
2016-05-09T07:37:14.450Z,1004.45
2016-05-09T07:38:16.813Z,1004.4
2016-05-09T07:39:16.847Z,1004.4
2016-05-09T07:40:14.489Z,1004.43
2016-05-09T07:41:16.477Z,1004.47
2016-05-09T07:42:16.761Z,1004.43
2016-05-09T07:43:16.388Z,1004.46
2016-05-09T07:44:16.282Z,1004.46
2016-05-09T07:45:16.878Z,1004.42
2016-05-09T07:46:17.162Z,1004.39
2016-05-09T07:47:17.290Z,1004.38
2016-05-09T07:48:18.558Z,1004.38
2016-05-09T07:49:16.748Z,1004.39
2016-05-09T07:50:17.314Z,1004.46
2016-05-09T07:51:15.290Z,1004.4
2016-05-09T07:52:15.684Z,1004.39
2016-05-09T07:53:15.874Z,1004.37
2016-05-09T07:54:16.548Z,1004.36
2016-05-09T07:55:16.904Z,1004.33
2016-05-09T07:56:16.188Z,1004.31
2016-05-09T07:57:16.035Z,1004.35
2016-05-09T07:58:16.818Z,1004.32
2016-05-09T07:59:17.384Z,1004.39
2016-05-09T08:00:16.543Z,1004.33
2016-05-09T08:01:16.732Z,1004.33
2016-05-09T08:02:17.266Z,1004.41
2016-05-09T08:03:18.691Z,1004.38
2016-05-09T08:04:16.099Z,1004.34
2016-05-09T08:05:18.946Z,1004.34
2016-05-09T08:06:29.340Z,1004.36
2016-05-09T08:07:24.326Z,1004.35
2016-05-09T08:08:25.470Z,1004.36
2016-05-09T08:09:18.629Z,1004.34
2016-05-09T08:10:19.491Z,1004.35
2016-05-09T08:11:27.088Z,1004.34
2016-05-09T08:12:18.778Z,1004.32
2016-05-09T08:13:19.046Z,1004.31
2016-05-09T08:14:19.830Z,1004.31
2016-05-09T08:15:18.958Z,1004.29
2016-05-09T08:16:18.601Z,1004.31
2016-05-09T08:17:19.510Z,1004.31
2016-05-09T08:18:18.435Z,1004.25
2016-05-09T08:19:19.265Z,1004.28
2016-05-09T08:20:20.314Z,1004.21
2016-05-09T08:21:19.396Z,1004.28
2016-05-09T08:22:19.117Z,1004.24
2016-05-09T08:23:19.775Z,1004.28
2016-05-09T08:24:18.795Z,1004.26
2016-05-09T08:25:18.189Z,1004.27
2016-05-09T08:26:18.238Z,1004.25
2016-05-09T08:27:18.272Z,1004.31
2016-05-09T08:28:18.321Z,1004.25
2016-05-09T08:29:18.371Z,1004.28
2016-05-09T08:30:18.420Z,1004.22
2016-05-09T08:31:18.454Z,1004.18
2016-05-09T08:32:18.504Z,1004.28
2016-05-09T08:33:18.538Z,1004.23
2016-05-09T08:34:18.587Z,1004.23
2016-05-09T08:35:18.621Z,1004.23
2016-05-09T08:36:18.671Z,1004.24
2016-05-09T08:37:18.814Z,1004.27
2016-05-09T08:38:18.879Z,1004.23
2016-05-09T08:39:18.803Z,1004.25
2016-05-09T08:40:18.853Z,1004.25
2016-05-09T08:41:19.013Z,1004.27
2016-05-09T08:42:18.937Z,1004.26
2016-05-09T08:43:19.034Z,1004.31
2016-05-09T08:44:19.176Z,1004.32
2016-05-09T08:45:19.070Z,1004.3
2016-05-09T08:46:19.104Z,1004.33
2016-05-09T08:47:19.153Z,1004.29
2016-05-09T08:48:19.187Z,1004.31
2016-05-09T08:49:19.237Z,1004.29
2016-05-09T08:50:19.317Z,1004.27
2016-05-09T08:51:19.320Z,1004.28
2016-05-09T08:52:19.370Z,1004.33
2016-05-09T08:53:19.404Z,1004.28
2016-05-09T08:54:19.453Z,1004.23
2016-05-09T08:55:19.612Z,1004.25
2016-05-09T08:56:19.537Z,1004.3
2016-05-09T08:57:19.586Z,1004.3
2016-05-09T08:58:19.620Z,1004.27
2016-05-09T08:59:19.670Z,1004.3
2016-05-09T09:00:19.704Z,1004.33
2016-05-09T09:01:19.753Z,1004.32
2016-05-09T09:02:19.803Z,1004.27
2016-05-09T09:03:19.837Z,1004.23
2016-05-09T09:04:19.886Z,1004.29
2016-05-09T09:05:19.936Z,1004.33
2016-05-09T09:06:19.970Z,1004.36
2016-05-09T09:07:20.019Z,1004.32
2016-05-09T09:08:20.068Z,1004.33
2016-05-09T09:09:20.197Z,1004.3
2016-05-09T09:10:20.152Z,1004.28
2016-05-09T09:11:20.186Z,1004.27
2016-05-09T09:12:20.236Z,1004.25
2016-05-09T09:13:20.880Z,1004.19
2016-05-09T09:14:20.320Z,1004.26
2016-05-09T09:15:20.651Z,1004.24
2016-05-09T09:16:20.419Z,1004.24
2016-05-09T09:17:20.453Z,1004.23
2016-05-09T09:18:20.503Z,1004.25
2016-05-09T09:19:20.537Z,1004.19
2016-05-09T09:20:20.586Z,1004.21
2016-05-09T09:21:20.761Z,1004.19
2016-05-09T09:22:20.700Z,1004.19
2016-05-09T09:23:20.719Z,1004.16
2016-05-09T09:24:20.784Z,1004.17
2016-05-09T09:25:20.803Z,1004.14
2016-05-09T09:26:20.852Z,1004.21
2016-05-09T09:27:20.902Z,1004.18
2016-05-09T09:28:21.030Z,1004.15
2016-05-09T09:29:21.157Z,1004.15
2016-05-09T09:30:21.019Z,1004.14
2016-05-09T09:31:21.068Z,1004.1
2016-05-09T09:32:21.119Z,1004.1
2016-05-09T09:33:21.183Z,1004.07
2016-05-09T09:34:21.202Z,1004.08
2016-05-09T09:35:21.252Z,1004.07
2016-05-09T09:36:21.301Z,1004.15
2016-05-09T09:37:21.335Z,1004.11
2016-05-09T09:38:21.385Z,1004.08
2016-05-09T09:39:21.996Z,1004.07
2016-05-09T09:40:21.468Z,1004.06
2016-05-09T09:41:21.518Z,1004.05
2016-05-09T09:42:21.567Z,1004.06
2016-05-09T09:43:21.601Z,1004.02
2016-05-09T09:44:21.775Z,1004.06
2016-05-09T09:45:21.701Z,1004.01
2016-05-09T09:46:21.781Z,1004.01
2016-05-09T09:47:21.814Z,1004.07
2016-05-09T09:48:21.834Z,1003.99
2016-05-09T09:49:21.867Z,1003.95
2016-05-09T09:50:21.917Z,1004
2016-05-09T09:51:21.966Z,1003.97
2016-05-09T09:52:22.390Z,1003.95
2016-05-09T09:53:22.175Z,1003.96
2016-05-09T09:54:22.225Z,1003.93
2016-05-09T09:55:22.149Z,1003.95
2016-05-09T09:56:22.183Z,1003.91
2016-05-09T09:57:22.233Z,1003.96
2016-05-09T09:58:22.313Z,1003.99
2016-05-09T09:59:22.331Z,1004.04
2016-05-09T10:00:22.458Z,1004.1
2016-05-09T10:01:22.414Z,1003.95
2016-05-09T10:02:22.481Z,1003.96
2016-05-09T10:03:22.499Z,1003.98
2016-05-09T10:04:22.564Z,1003.98
2016-05-09T10:05:22.598Z,1004.27
2016-05-09T10:06:22.647Z,1004.66
2016-05-09T10:07:22.696Z,1004.9
2016-05-09T10:08:22.730Z,1004.97
2016-05-09T10:09:22.796Z,1004.24
2016-05-09T10:10:22.829Z,1004.08
2016-05-09T10:11:22.879Z,1004.35
2016-05-09T10:12:23.023Z,1004.25
2016-05-09T10:13:23.135Z,1005.02
2016-05-09T10:14:23.482Z,1005.07
2016-05-09T10:15:23.093Z,1004.16
2016-05-09T10:16:23.127Z,1004.06
2016-05-09T10:17:23.162Z,1004.14
2016-05-09T10:18:23.210Z,1005.04
2016-05-09T10:19:23.338Z,1004.98
2016-05-09T10:20:23.326Z,1004.42
2016-05-09T10:21:23.609Z,1004.5
2016-05-09T10:22:23.425Z,1004.72
2016-05-09T10:23:23.881Z,1004.69
2016-05-09T10:24:23.742Z,1005.1
2016-05-09T10:25:23.729Z,1004.41
2016-05-09T10:26:23.623Z,1004.01
2016-05-09T10:27:23.672Z,1003.95
2016-05-09T10:28:23.737Z,1004.61
2016-05-09T10:29:23.819Z,1004.1
2016-05-09T10:30:23.822Z,1004.06
2016-05-09T10:31:23.917Z,1004.2
2016-05-09T10:32:23.936Z,1004.91
2016-05-09T10:33:23.985Z,1004.92
2016-05-09T10:34:24.036Z,1004.92
2016-05-09T10:35:24.085Z,1004.85
2016-05-09T10:36:24.228Z,1004.85
2016-05-09T10:37:24.871Z,1004.86
2016-05-09T10:38:25.061Z,1004.82
2016-05-09T10:39:24.688Z,1004.03
2016-05-09T10:40:24.832Z,1004.04
2016-05-09T10:41:24.897Z,1004.58
2016-05-09T10:42:24.932Z,1003.95
2016-05-09T10:43:24.950Z,1004.04
2016-05-09T10:44:25.015Z,1004.63
2016-05-09T10:45:25.065Z,1004.56
2016-05-09T10:46:25.129Z,1004.01
2016-05-09T10:47:25.132Z,1004.53
2016-05-09T10:48:25.432Z,1004.55
2016-05-09T10:49:25.279Z,1004.48
2016-05-09T10:50:25.375Z,1004.54
2016-05-09T10:51:25.299Z,1004.53
2016-05-09T10:52:25.505Z,1004.48
2016-05-09T10:53:25.523Z,1004.5
2016-05-09T10:54:25.479Z,1004.44
2016-05-09T10:55:25.576Z,1004.47
2016-05-09T10:56:25.845Z,1004.44
2016-05-09T10:57:25.815Z,1004.43
2016-05-09T10:58:25.834Z,1004.47
2016-05-09T10:59:25.602Z,1004.39
2016-05-09T11:00:25.933Z,1004.3
2016-05-09T11:01:25.561Z,1004.2
2016-05-09T11:02:25.610Z,1004.4
2016-05-09T11:03:25.675Z,1004.47
2016-05-09T11:04:26.022Z,1003.97
2016-05-09T11:05:26.133Z,1004.35
2016-05-09T11:06:29.230Z,1004.46
2016-05-09T11:07:26.342Z,1004.42
2016-05-09T11:08:26.236Z,1004.33
2016-05-09T11:09:26.863Z,1004.33
2016-05-09T11:10:26.600Z,1004.34
2016-05-09T11:11:26.446Z,1004.32
2016-05-09T11:12:26.730Z,1004.35
2016-05-09T11:13:29.656Z,1004.38
2016-05-09T11:14:27.268Z,1004.35
2016-05-09T11:15:27.224Z,1004.46
2016-05-09T11:16:27.398Z,1004.38
2016-05-09T11:17:26.962Z,1004.41
2016-05-09T11:18:26.996Z,1004.09
2016-05-09T11:19:26.749Z,1003.95
2016-05-09T11:20:27.393Z,1004.04
2016-05-09T11:21:27.270Z,1003.94
2016-05-09T11:22:27.898Z,1004.16
2016-05-09T11:23:27.479Z,1004.23
2016-05-09T11:24:27.810Z,1004.4
2016-05-09T11:25:27.110Z,1004.36
2016-05-09T11:26:27.175Z,1004.38
2016-05-09T11:27:27.131Z,1004.43
2016-05-09T11:28:27.196Z,1004.36
2016-05-09T11:29:27.276Z,1004.43
2016-05-09T11:30:27.325Z,1004.45
2016-05-09T11:31:27.486Z,1004.44
2016-05-09T11:32:27.503Z,1004.24
2016-05-09T11:33:27.787Z,1003.95
2016-05-09T11:34:27.571Z,1004.09
2016-05-09T11:35:27.636Z,1003.83
2016-05-09T11:36:27.780Z,1003.89
2016-05-09T11:37:28.345Z,1003.97
2016-05-09T11:38:28.020Z,1003.9
2016-05-09T11:39:27.866Z,1003.79
2016-05-09T11:40:28.056Z,1004.17
2016-05-09T11:41:28.981Z,1004.06
2016-05-09T11:42:28.327Z,1004.48
2016-05-09T11:43:28.127Z,1004.45
2016-05-09T11:44:28.177Z,1004.46
2016-05-09T11:45:28.241Z,1004.51
2016-05-09T11:46:28.307Z,1004.52
2016-05-09T11:47:28.387Z,1004.52
2016-05-09T11:48:28.547Z,1004.54
2016-05-09T11:49:28.940Z,1004.07
2016-05-09T11:50:28.801Z,1003.86
2016-05-09T11:51:29.007Z,1003.68
2016-05-09T11:52:28.635Z,1004.52
2016-05-09T11:53:28.701Z,1003.79
2016-05-09T11:54:28.751Z,1004.58
2016-05-09T11:55:28.815Z,1003.68
2016-05-09T11:56:28.880Z,1003.67
2016-05-09T11:57:28.945Z,1003.64
2016-05-09T11:58:29.059Z,1003.6
2016-05-09T11:59:29.061Z,1004.43
2016-05-09T12:00:29.109Z,1004.4
2016-05-09T12:01:29.175Z,1004.41
2016-05-09T12:02:29.365Z,1004.39
2016-05-09T12:03:29.290Z,1004.39
2016-05-09T12:04:29.356Z,1004.39
2016-05-09T12:05:29.639Z,1004.4
2016-05-09T12:06:29.797Z,1004.32
2016-05-09T12:07:29.707Z,1004.37
2016-05-09T12:08:30.304Z,1004.37
2016-05-09T12:09:30.463Z,1004.33